Auk-Alfa, Netherlands

3:23 PM CET on February 08, 2016 (GMT +0100)
Ekofisk | | Change Station
CLOSE
Current Station
Airport
Location: Ekofisk,
Elevation: 10 ft
Nearby Weather Stations

Elev 10 ft 56.55 °N, 3.25 °E | Updated 33 minutes ago

Mostly Cloudy
Mostly Cloudy
43 °F
Feels Like 32 °F
N
29
Wind Variable Wind from SSW

Today
High -- | Low -- °F
--% Chance of Precip.
Yesterday
High -- | Low -- °F
Precip. -- in
Pressure 28.62 in
Visibility 6.2 miles
Clouds Few 1000 ft
Scattered Clouds 1500 ft
Mostly Cloudy 3500 ft
Windchill 32 °F
Dew Point 39 °F
Humidity 87%
Rainfall 0.00 in
Snow Depth Not available.
8:35 AM 5:37 PM
Waning Crescent, 0% visible
METAR ENEK 081350Z 21025KT 9999 VCSH FEW010 SCT015CB BKN035 06/04 Q0969 W06/S5
Pressure 28.62 in
Visibility 6.2 miles
Clouds Few 1000 ft
Scattered Clouds 1500 ft
Mostly Cloudy 3500 ft
Windchill 32 °F
Dew Point 39 °F
Humidity 87%
Rainfall 0.00 in
Snow Depth Not available.
8:35 AM 5:37 PM
Waning Crescent, 0% visible
METAR ENEK 081350Z 21025KT 9999 VCSH FEW010 SCT015CB BKN035 06/04 Q0969 W06/S5

10-Day Weather Forecast

Almanac

Astronomy

Feb. 08, 2016 Rise Set
Actual Time
Civil Twilight
Nautical Twilight
Astronomical Twilight
Moon
Length of Visible Light
Length of Day
Tomorrow will be .
, % of the Moon is Illuminated

Today's Extremes

Country Highs Country Lows

Community

WunderPhotos

Upload Photos

1,891,437 photos uploaded!

WunderBlog® & News

Nearby

Air Quality

  Air Quality AQ Index Pollutant
Not available.

Snow Depth

Station Depth Elevation

Earthquake Activity

City Distance Mag. Time & Date
Minimum magnitude displayed is 2.5.

Coastal Water Temperatures

Place Temperature

Stations

Nearby Weather Stations

Station Location Temp. Windchill Dew Point Humidity Wind Precip. Elev Updated Type